Time;durP1;ratioP1;P1;durP2;ratioP2;P2;SDS_P1;SDS_P2;PMS_P1;PMS_P2;Temp;Humidity;BMP_temperature;BMP_pressure;BME280_temperature;BME280_humidity;BME280_pressure;Samples;Min_cycle;Max_cycle;Signal;HPM_P1;HPM_P2
2023/09/03 00:01:56;;;;;;;7.45;5.55;;;;;;;16.91;71.67;100179.59;4923813;29;20532;-69
2023/09/03 00:04:22;;;;;;;6.47;5.43;;;;;;;17.26;71.58;100237.34;4909364;29;20158;-69
2023/09/03 00:06:48;;;;;;;7.25;5.72;;;;;;;17.15;71.37;100219.25;4926404;29;20044;-70
2023/09/03 00:09:16;;;;;;;9.00;5.57;;;;;;;17.11;71.45;100213.19;4905544;29;20040;-70
2023/09/03 00:11:42;;;;;;;7.47;5.60;;;;;;;17.16;71.58;100221.81;4926198;29;20102;-70
2023/09/03 00:14:08;;;;;;;9.75;5.32;;;;;;;17.23;71.50;100234.78;4940730;29;20036;-70
2023/09/03 00:16:34;;;;;;;6.18;5.55;;;;;;;17.09;71.62;100228.19;4941116;28;20039;-69
2023/09/03 00:19:00;;;;;;;7.15;5.72;;;;;;;17.10;71.33;100239.56;4913814;29;20043;-70
2023/09/03 00:21:26;;;;;;;9.23;6.10;;;;;;;17.11;71.07;100243.91;4941459;28;20078;-70
2023/09/03 00:23:52;;;;;;;8.00;5.82;;;;;;;17.12;71.52;100250.88;4940894;28;20040;-69
2023/09/03 00:26:21;;;;;;;5.90;5.30;;;;;;;17.21;71.61;100258.53;4925566;29;20044;-69
2023/09/03 00:28:52;;;;;;;7.53;6.00;;;;;;;17.17;71.44;100251.63;4922520;29;20039;-71
2023/09/03 00:31:21;;;;;;;8.38;5.97;;;;;;;17.22;71.34;100265.47;4941061;29;20059;-72
2023/09/03 00:33:47;;;;;;;5.80;5.07;;;;;;;17.12;71.58;100257.00;4897858;29;20043;-72
2023/09/03 00:36:14;;;;;;;6.47;5.63;;;;;;;17.23;71.27;100267.19;4912766;29;20039;-71
2023/09/03 00:38:40;;;;;;;7.38;5.82;;;;;;;17.24;71.23;100263.66;4928262;29;20043;-73
2023/09/03 00:41:06;;;;;;;6.25;5.63;;;;;;;17.21;71.22;100253.25;4911240;29;20178;-72
2023/09/03 00:43:33;;;;;;;6.47;5.78;;;;;;;17.19;71.01;100254.19;4917813;29;20131;-72
2023/09/03 00:46:03;;;;;;;6.60;5.85;;;;;;;17.14;71.20;100255.19;4943815;28;20493;-75
2023/09/03 00:48:30;;;;;;;7.32;5.35;;;;;;;17.06;71.06;100243.16;4942053;28;20074;-72
2023/09/03 00:51:00;;;;;;;7.75;5.90;;;;;;;16.94;71.36;100246.97;4943578;29;20133;-72
2023/09/03 00:53:29;;;;;;;8.80;5.80;;;;;;;16.79;71.17;100229.84;4929067;29;20065;-73
2023/09/03 00:55:56;;;;;;;8.35;5.82;;;;;;;16.79;71.39;100243.00;4911871;29;20129;-73
2023/09/03 00:58:22;;;;;;;10.30;6.22;;;;;;;16.83;71.40;100249.91;4943671;29;20082;-72
2023/09/03 01:00:48;;;;;;;7.00;5.65;;;;;;;16.78;71.31;100260.53;4928372;29;20501;-69
2023/09/03 01:03:15;;;;;;;6.05;5.18;;;;;;;16.72;71.37;100260.69;4946631;29;20043;-75
2023/09/03 01:05:41;;;;;;;11.23;6.47;;;;;;;16.79;71.43;100274.53;4933299;29;20166;-74
2023/09/03 01:08:07;;;;;;;10.27;6.00;;;;;;;16.68;71.71;100253.81;4928860;29;20149;-72
2023/09/03 01:11:05;;;;;;;9.98;6.15;;;;;;;16.69;71.49;100255.53;4929712;29;20509;-75
2023/09/03 01:13:38;;;;;;;14.05;5.70;;;;;;;16.75;71.73;100283.44;4945026;29;20043;-72
2023/09/03 01:16:10;;;;;;;15.18;6.40;;;;;;;16.72;71.41;100276.47;4924768;29;20035;-74
2023/09/03 01:18:38;;;;;;;12.65;6.05;;;;;;;16.58;71.81;100261.06;4943928;28;20710;-72
2023/09/03 01:21:35;;;;;;;12.13;6.30;;;;;;;16.67;71.87;100273.97;4912122;29;20035;-72
2023/09/03 01:24:27;;;;;;;7.15;5.55;;;;;;;16.60;71.92;100258.41;4945062;29;20093;-72
2023/09/03 01:27:24;;;;;;;10.15;6.18;;;;;;;16.69;71.87;100266.91;4928107;29;20043;-72
2023/09/03 01:29:52;;;;;;;8.40;5.68;;;;;;;16.58;71.85;100252.34;4940600;28;20067;-72
2023/09/03 01:32:21;;;;;;;8.63;5.75;;;;;;;16.66;71.78;100258.25;4933251;29;20051;-73
2023/09/03 01:34:49;;;;;;;8.60;5.85;;;;;;;16.59;71.88;100246.19;4925339;29;20102;-70
2023/09/03 01:37:16;;;;;;;8.35;5.93;;;;;;;16.55;72.02;100235.75;4925078;29;20079;-71
2023/09/03 01:39:42;;;;;;;8.57;6.32;;;;;;;16.65;71.85;100260.00;4910275;29;20046;-71
2023/09/03 01:42:08;;;;;;;11.30;6.53;;;;;;;16.54;72.06;100231.41;4941858;28;20047;-71
2023/09/03 01:44:34;;;;;;;9.32;6.50;;;;;;;16.74;72.06;100272.03;4924872;29;20466;-72
2023/09/03 01:47:14;;;;;;;8.00;5.40;;;;;;;16.74;72.05;100263.31;4925541;29;20083;-71
2023/09/03 01:49:54;;;;;;;8.55;6.07;;;;;;;16.58;71.90;100242.69;4925905;29;20044;-71
2023/09/03 01:52:39;;;;;;;13.05;7.93;;;;;;;16.75;71.82;100271.13;4893289;29;20047;-71
2023/09/03 01:55:10;;;;;;;10.23;6.97;;;;;;;16.71;71.93;100264.22;4925182;29;20044;-72
2023/09/03 01:57:43;;;;;;;11.13;6.40;;;;;;;16.66;72.06;100258.25;4941726;28;20074;-71
2023/09/03 02:00:13;;;;;;;9.35;7.00;;;;;;;16.76;71.84;100278.13;4923409;29;20067;-70
2023/09/03 02:02:44;;;;;;;8.00;6.63;;;;;;;16.77;71.85;100279.84;4925899;29;20047;-72
2023/09/03 02:05:13;;;;;;;10.55;6.30;;;;;;;16.64;71.96;100253.03;4917429;29;20047;-72
2023/09/03 02:07:40;;;;;;;12.13;7.18;;;;;;;16.75;71.93;100275.53;4928593;29;20498;-70
2023/09/03 02:10:07;;;;;;;8.27;6.07;;;;;;;16.74;71.87;100273.81;4912602;29;20055;-70
2023/09/03 02:12:33;;;;;;;8.68;6.35;;;;;;;16.48;71.69;100242.06;4913147;29;20047;-70
2023/09/03 02:14:59;;;;;;;7.15;5.82;;;;;;;16.64;71.59;100274.06;4927960;29;20158;-71
2023/09/03 02:17:26;;;;;;;8.45;5.80;;;;;;;16.51;71.92;100263.00;4913236;29;20133;-70
2023/09/03 02:19:53;;;;;;;6.72;5.82;;;;;;;16.61;71.92;100281.16;4912525;29;20039;-70
2023/09/03 02:22:39;;;;;;;14.35;9.35;;;;;;;16.56;72.08;100281.25;4915483;29;20510;-70
2023/09/03 02:25:10;;;;;;;10.93;7.75;;;;;;;16.55;72.02;100290.91;4896766;29;20047;-71
2023/09/03 02:27:36;;;;;;;12.18;8.48;;;;;;;16.47;72.10;100277.09;4911303;29;20055;-70
2023/09/03 02:30:04;;;;;;;7.93;6.65;;;;;;;16.44;71.73;100284.22;4943015;28;20138;-69
2023/09/03 02:32:30;;;;;;;9.95;6.45;;;;;;;16.30;71.67;100272.31;4930313;29;20773;-70
2023/09/03 02:34:56;;;;;;;9.65;7.35;;;;;;;16.32;72.10;100285.38;4927662;29;20134;-72
2023/09/03 02:37:23;;;;;;;10.90;7.80;;;;;;;16.20;72.31;100279.56;4928009;29;20430;-70
2023/09/03 02:39:49;;;;;;;12.48;9.68;;;;;;;16.12;72.32;100271.00;4931863;29;20044;-70
2023/09/03 02:42:16;;;;;;;11.48;7.72;;;;;;;16.02;72.65;100259.84;4928601;29;20056;-71
2023/09/03 02:44:42;;;;;;;12.80;8.77;;;;;;;16.19;72.24;100292.69;4928709;29;20075;-70
2023/09/03 02:47:08;;;;;;;11.63;7.53;;;;;;;16.20;72.73;100295.31;4927151;29;20047;-70
2023/09/03 02:49:34;;;;;;;11.18;6.75;;;;;;;16.10;72.39;100278.03;4927439;29;20181;-71
2023/09/03 02:52:00;;;;;;;14.48;9.18;;;;;;;16.16;72.44;100296.28;4928897;29;20040;-69
2023/09/03 02:54:27;;;;;;;11.30;7.18;;;;;;;16.05;72.56;100280.78;4945120;29;20414;-71
2023/09/03 02:56:53;;;;;;;14.07;7.07;;;;;;;16.13;72.95;100304.22;4910251;29;20502;-67
2023/09/03 02:59:19;;;;;;;10.32;7.10;;;;;;;16.04;72.79;100280.81;4909924;29;20046;-70
2023/09/03 03:01:45;;;;;;;11.43;7.43;;;;;;;16.17;72.96;100307.63;4927063;29;20044;-70
2023/09/03 03:04:11;;;;;;;9.98;7.65;;;;;;;16.22;72.63;100301.34;4925433;29;20044;-69
2023/09/03 03:06:38;;;;;;;10.13;7.45;;;;;;;16.20;72.84;100291.81;4925522;29;20047;-69
2023/09/03 03:09:05;;;;;;;8.63;6.55;;;;;;;16.26;72.95;100297.75;4911528;29;20405;-69
2023/09/03 03:11:32;;;;;;;7.60;6.38;;;;;;;16.25;72.73;100296.03;4924707;29;20055;-71
2023/09/03 03:14:04;;;;;;;13.32;8.18;;;;;;;16.13;72.92;100282.34;4918474;29;20573;-71
2023/09/03 03:16:34;;;;;;;8.60;6.63;;;;;;;16.22;72.52;100297.88;4923414;29;20039;-72
2023/09/03 03:19:06;;;;;;;9.73;7.55;;;;;;;16.17;72.82;100300.63;4909694;29;20043;-69
2023/09/03 03:21:33;;;;;;;9.43;6.93;;;;;;;16.10;72.88;100299.91;4939420;29;20036;-70
2023/09/03 03:24:04;;;;;;;9.80;7.07;;;;;;;16.13;73.10;100309.47;4895737;29;20095;-69
2023/09/03 03:26:34;;;;;;;9.82;7.32;;;;;;;16.00;73.02;100293.16;4924562;29;20043;-71
2023/09/03 03:29:01;;;;;;;12.45;6.88;;;;;;;16.06;73.04;100311.38;4925146;29;20050;-70
2023/09/03 03:31:31;;;;;;;8.18;6.68;;;;;;;16.13;72.95;100314.72;4928884;29;20063;-71
2023/09/03 03:33:59;;;;;;;9.48;7.55;;;;;;;16.14;72.93;100313.81;4924346;29;20051;-69
2023/09/03 03:36:29;;;;;;;10.55;6.72;;;;;;;16.16;73.15;100309.41;4925575;29;20049;-70
2023/09/03 03:38:55;;;;;;;9.25;7.18;;;;;;;16.20;72.98;100313.69;4923847;29;20047;-72
2023/09/03 03:41:27;;;;;;;9.48;7.20;;;;;;;16.02;72.88;100293.09;4910206;29;20046;-70
2023/09/03 03:43:54;;;;;;;9.23;7.00;;;;;;;15.94;73.02;100265.28;4908986;29;20054;-68
2023/09/03 03:46:23;;;;;;;9.18;6.55;;;;;;;16.21;72.98;100307.53;4895655;29;20090;-71
2023/09/03 03:48:53;;;;;;;7.68;6.18;;;;;;;16.22;72.99;100309.22;4925551;29;20047;-70
2023/09/03 03:51:20;;;;;;;10.63;6.65;;;;;;;16.19;73.14;100304.09;4939523;29;20051;-70
2023/09/03 03:53:46;;;;;;;7.47;6.72;;;;;;;16.15;72.92;100293.66;4895070;29;20487;-68
2023/09/03 03:56:12;;;;;;;8.45;6.43;;;;;;;16.23;72.60;100308.34;4924654;29;21241;-69
2023/09/03 03:58:40;;;;;;;9.80;6.57;;;;;;;16.23;72.98;100297.84;4924316;29;20131;-71
2023/09/03 04:01:17;;;;;;;8.02;6.70;;;;;;;16.30;72.84;100310.81;4913839;29;20510;-69
2023/09/03 04:03:45;;;;;;;9.00;6.47;;;;;;;16.27;72.81;100303.88;4926482;29;20047;-70
2023/09/03 04:06:12;;;;;;;14.05;7.05;;;;;;;16.27;72.80;100291.59;4889311;29;20044;-69
2023/09/03 04:08:39;;;;;;;8.45;6.65;;;;;;;16.50;72.95;100307.72;4928667;29;20042;-69
2023/09/03 04:11:08;;;;;;;10.43;6.88;;;;;;;16.55;72.75;100290.91;4908981;29;20064;-70
2023/09/03 04:13:37;;;;;;;;;;;;;;;16.80;72.78;100313.94;4914258;29;20044;-69
2023/09/03 04:16:13;;;;;;;9.55;6.15;;;;;;;16.96;72.45;100317.03;4939878;29;19923;-69
2023/09/03 04:18:41;;;;;;;10.07;6.57;;;;;;;17.12;72.30;100300.84;4909286;29;20099;-70
2023/09/03 04:21:08;;;;;;;10.55;6.63;;;;;;;17.03;71.98;100275.66;4923443;29;20048;-69
2023/09/03 04:23:34;;;;;;;9.20;6.22;;;;;;;17.30;71.90;100302.09;4904313;29;20568;-69
2023/09/03 04:26:03;;;;;;;11.73;6.70;;;;;;;17.30;71.60;100281.06;4909849;29;20051;-69
2023/09/03 04:28:31;;;;;;;7.13;6.30;;;;;;;17.63;71.44;100302.00;4922802;29;20134;-68
2023/09/03 04:31:00;;;;;;;8.15;6.55;;;;;;;17.86;71.05;100303.06;4939154;29;20043;-69
2023/09/03 04:33:29;;;;;;;11.70;7.05;;;;;;;17.95;70.81;100291.38;4943550;28;20425;-70
2023/09/03 04:35:59;;;;;;;8.48;6.70;;;;;;;18.25;70.52;100315.88;4911189;29;20124;-70
2023/09/03 04:38:27;;;;;;;9.18;6.90;;;;;;;18.42;69.91;100314.50;4927599;29;20043;-69
2023/09/03 04:40:55;;;;;;;8.95;6.50;;;;;;;18.44;69.44;100304.72;4926067;29;20039;-68
2023/09/03 04:43:22;;;;;;;8.77;6.10;;;;;;;18.45;68.99;100302.06;4926956;29;20087;-68
2023/09/03 04:45:50;;;;;;;8.57;7.00;;;;;;;18.59;68.58;100317.41;4943740;28;20032;-70
2023/09/03 04:48:17;;;;;;;10.65;6.88;;;;;;;18.58;68.38;100299.88;4943112;29;20089;-68
2023/09/03 04:50:43;;;;;;;9.77;6.50;;;;;;;18.78;68.29;100314.97;4943535;29;20041;-68
2023/09/03 04:53:12;;;;;;;8.15;6.63;;;;;;;18.84;68.06;100292.84;4928819;29;20043;-68
2023/09/03 04:55:39;;;;;;;9.18;6.50;;;;;;;19.11;67.60;100301.56;4912438;29;20982;-67
2023/09/03 04:58:05;;;;;;;9.88;5.93;;;;;;;19.27;67.22;100304.50;4927540;29;20043;-67
2023/09/03 05:00:33;;;;;;;8.93;6.22;;;;;;;19.34;66.76;100310.41;4907425;29;20112;-69
2023/09/03 05:03:01;;;;;;;7.80;6.35;;;;;;;19.35;65.97;100298.94;4912301;29;20560;-69
2023/09/03 05:05:27;;;;;;;7.25;6.30;;;;;;;19.51;65.96;100315.06;4942958;28;20050;-68
2023/09/03 05:07:53;;;;;;;8.05;5.68;;;;;;;19.60;65.81;100315.59;4925068;29;20047;-69
2023/09/03 05:10:21;;;;;;;7.68;6.30;;;;;;;19.48;65.63;100270.31;4897429;29;20071;-68
2023/09/03 05:12:47;;;;;;;9.30;5.72;;;;;;;19.88;65.53;100312.78;4912819;29;20490;-70
2023/09/03 05:15:13;;;;;;;9.70;5.90;;;;;;;20.00;65.32;100293.81;4942505;28;20133;-70
2023/09/03 05:17:41;;;;;;;9.63;5.78;;;;;;;20.37;64.79;100309.94;4926574;29;20043;-72
2023/09/03 05:20:11;;;;;;;6.85;5.78;;;;;;;20.68;64.10;100305.97;4912121;29;20258;-70
2023/09/03 05:22:38;;;;;;;7.93;5.63;;;;;;;20.79;63.08;100267.69;4895228;29;20429;-70
2023/09/03 05:25:05;;;;;;;8.85;5.90;;;;;;;21.22;62.83;100292.22;4912321;29;20039;-72
2023/09/03 05:27:32;;;;;;;16.38;6.35;;;;;;;21.43;62.40;100290.34;4943378;29;20057;-70
2023/09/03 05:29:59;;;;;;;11.73;6.15;;;;;;;21.62;61.91;100278.94;4924772;29;20074;-70
2023/09/03 05:32:25;;;;;;;9.75;6.15;;;;;;;22.34;61.22;100297.56;4894038;29;20047;-71
2023/09/03 05:34:52;;;;;;;7.32;5.30;;;;;;;22.71;59.84;100301.00;4913140;29;20784;-71
2023/09/03 05:37:19;;;;;;;11.38;6.00;;;;;;;22.66;59.06;100256.16;4907012;29;20158;-73
2023/09/03 05:39:45;;;;;;;12.20;5.38;;;;;;;23.23;57.63;100291.25;4924777;29;20359;-72
2023/09/03 05:42:11;;;;;;;10.18;6.03;;;;;;;23.45;57.09;100259.06;4927524;29;20115;-71
2023/09/03 05:44:38;;;;;;;14.52;6.35;;;;;;;24.81;56.44;100293.81;4926420;29;20478;-73
2023/09/03 05:47:04;;;;;;;9.25;5.20;;;;;;;26.53;53.84;100295.34;4942925;28;20075;-73
2023/09/03 05:49:31;;;;;;;10.43;5.05;;;;;;;27.22;52.54;100288.88;4926194;29;20040;-72
2023/09/03 05:51:57;;;;;;;10.52;5.28;;;;;;;27.40;50.23;100294.69;4926926;29;20041;-71
2023/09/03 05:54:24;;;;;;;8.45;4.45;;;;;;;26.97;49.31;100237.19;4927796;29;20036;-71
2023/09/03 05:56:50;;;;;;;10.85;4.97;;;;;;;27.10;48.58;100276.38;4910503;29;20043;-70
2023/09/03 05:59:16;;;;;;;5.70;4.65;;;;;;;27.31;47.36;100277.50;4914817;29;20047;-70
2023/09/03 06:01:42;;;;;;;7.75;4.63;;;;;;;27.58;47.42;100287.19;4912019;29;20047;-70
2023/09/03 06:04:13;;;;;;;5.57;4.70;;;;;;;27.79;46.35;100268.75;4926293;29;20067;-70
2023/09/03 06:06:43;;;;;;;6.82;4.32;;;;;;;28.44;45.72;100283.59;4926643;29;20099;-73
2023/09/03 06:09:09;;;;;;;6.55;4.70;;;;;;;28.38;44.01;100284.91;4912564;29;20075;-71
2023/09/03 06:11:36;;;;;;;6.47;4.20;;;;;;;27.95;44.50;100289.81;4929098;29;20393;-72
2023/09/03 06:14:03;;;;;;;4.78;4.00;;;;;;;27.60;44.25;100284.41;4913381;29;20051;-71
2023/09/03 06:16:29;;;;;;;4.30;3.78;;;;;;;27.37;43.96;100270.84;4944654;29;20051;-75
2023/09/03 06:18:55;;;;;;;5.05;4.22;;;;;;;27.22;44.22;100270.16;4926866;29;20040;-72
2023/09/03 06:21:21;;;;;;;6.18;4.30;;;;;;;26.84;44.08;100244.34;4928094;29;20039;-71
2023/09/03 06:23:47;;;;;;;5.85;4.20;;;;;;;26.66;43.88;100273.16;4931547;29;20477;-69
2023/09/03 06:26:14;;;;;;;4.97;4.07;;;;;;;26.52;44.44;100277.63;4911025;29;20577;-76
2023/09/03 06:28:40;;;;;;;6.28;4.13;;;;;;;26.43;44.14;100283.59;4941806;29;20040;-77
2023/09/03 06:31:06;;;;;;;4.55;3.65;;;;;;;26.27;44.53;100270.44;4927992;29;20051;-71
2023/09/03 06:33:32;;;;;;;6.93;4.03;;;;;;;26.36;44.61;100272.50;4910485;29;20044;-70
2023/09/03 06:35:58;;;;;;;6.30;4.30;;;;;;;26.43;43.88;100279.09;4924940;29;20070;-71
2023/09/03 06:38:24;;;;;;;4.65;4.13;;;;;;;26.35;44.37;100276.13;4928056;29;20035;-71
2023/09/03 06:40:50;;;;;;;4.60;4.03;;;;;;;26.39;44.15;100288.28;4943253;29;20044;-70
2023/09/03 06:43:16;;;;;;;5.47;3.70;;;;;;;26.33;44.42;100274.50;4941140;29;20050;-69
2023/09/03 06:45:43;;;;;;;7.28;4.05;;;;;;;26.59;44.14;100286.94;4912279;29;20155;-72
2023/09/03 06:48:09;;;;;;;4.53;3.78;;;;;;;26.60;43.61;100253.06;4926080;29;20044;-74
2023/09/03 06:50:35;;;;;;;9.80;4.05;;;;;;;26.82;43.68;100283.63;4926284;29;20726;-72
2023/09/03 06:53:01;;;;;;;4.47;3.92;;;;;;;26.92;43.43;100290.06;4931133;29;20137;-74
2023/09/03 06:55:27;;;;;;;5.05;4.32;;;;;;;26.89;43.43;100288.47;4911176;29;20505;-72
2023/09/03 06:57:53;;;;;;;6.88;3.83;;;;;;;26.71;43.26;100266.53;4910839;29;20047;-73
2023/09/03 07:00:19;;;;;;;4.85;4.00;;;;;;;26.56;43.24;100256.94;4926970;29;20051;-74
2023/09/03 07:02:45;;;;;;;7.18;3.78;;;;;;;26.52;43.34;100264.28;4892368;29;20040;-77
2023/09/03 07:05:11;;;;;;;4.55;4.13;;;;;;;26.54;43.43;100277.53;4928394;29;20075;-74
2023/09/03 07:07:37;;;;;;;4.00;3.60;;;;;;;26.41;43.40;100253.50;4944429;28;20553;-75
2023/09/03 07:10:03;;;;;;;4.90;3.40;;;;;;;26.48;43.24;100253.94;4931524;29;20518;-76
2023/09/03 07:12:29;;;;;;;4.47;3.88;;;;;;;26.67;42.77;100283.72;4928464;29;20423;-77
2023/09/03 07:14:55;;;;;;;4.13;3.60;;;;;;;26.41;42.97;100264.19;4914595;29;20047;-76
2023/09/03 07:17:21;;;;;;;6.20;3.60;;;;;;;26.20;43.05;100261.13;4945292;28;20043;-73
2023/09/03 07:19:47;;;;;;;5.18;3.85;;;;;;;26.22;43.33;100273.44;4945904;29;20138;-73
2023/09/03 07:22:13;;;;;;;5.55;3.75;;;;;;;26.34;43.34;100293.09;4926619;29;20040;-72
2023/09/03 07:24:39;;;;;;;5.70;3.55;;;;;;;26.33;42.62;100294.03;4913397;29;20054;-73
2023/09/03 07:27:05;;;;;;;4.47;3.80;;;;;;;26.28;43.35;100291.66;4944143;29;20035;-71
2023/09/03 07:29:31;;;;;;;5.00;3.80;;;;;;;26.31;43.00;100286.13;4928176;29;20217;-72
2023/09/03 07:31:57;;;;;;;6.72;3.60;;;;;;;26.31;43.21;100275.47;4926996;29;20044;-72
2023/09/03 07:34:24;;;;;;;4.25;3.17;;;;;;;26.38;42.83;100281.22;4944465;29;20035;-72
2023/09/03 07:36:50;;;;;;;6.13;3.38;;;;;;;26.52;42.86;100288.28;4917773;29;20450;-72
2023/09/03 07:39:16;;;;;;;6.07;3.60;;;;;;;26.54;42.36;100270.38;4930201;29;20075;-73
2023/09/03 07:41:42;;;;;;;5.20;3.20;;;;;;;26.54;42.37;100256.19;4929427;29;20040;-71
2023/09/03 07:44:08;;;;;;;5.43;3.85;;;;;;;26.66;41.34;100283.84;4898754;29;20135;-72
2023/09/03 07:46:34;;;;;;;5.93;4.47;;;;;;;26.60;41.75;100280.63;4944121;29;20130;-72
2023/09/03 07:49:00;;;;;;;6.28;4.53;;;;;;;26.60;41.71;100290.44;4928054;29;20130;-70
2023/09/03 07:51:26;;;;;;;6.63;3.95;;;;;;;26.71;42.29;100284.34;4930705;29;20039;-69
2023/09/03 07:53:53;;;;;;;6.57;4.10;;;;;;;26.84;40.97;100295.94;4948548;28;20055;-72
2023/09/03 07:56:19;;;;;;;6.50;4.30;;;;;;;26.69;41.34;100255.13;4910903;29;20084;-72
2023/09/03 07:58:45;;;;;;;6.45;4.05;;;;;;;26.81;41.84;100265.94;4943871;29;20044;-73
2023/09/03 08:01:16;;;;;;;6.68;4.28;;;;;;;27.11;41.54;100284.28;4929990;29;20040;-73
2023/09/03 08:03:43;;;;;;;6.97;4.80;;;;;;;27.46;40.76;100294.28;4911498;29;20036;-71
2023/09/03 08:06:09;;;;;;;6.25;4.30;;;;;;;27.63;40.52;100274.34;4928150;29;20047;-75
2023/09/03 08:08:38;;;;;;;7.35;4.70;;;;;;;27.96;40.38;100293.34;4944467;29;20162;-74
2023/09/03 08:11:04;;;;;;;6.70;4.47;;;;;;;28.11;39.04;100283.38;4944486;29;20035;-73
2023/09/03 08:13:30;;;;;;;7.45;4.32;;;;;;;28.37;39.29;100300.13;4929931;29;20055;-73
2023/09/03 08:15:56;;;;;;;6.45;4.35;;;;;;;28.51;38.79;100271.44;4942716;28;20043;-73
2023/09/03 08:18:22;;;;;;;6.38;4.03;;;;;;;29.04;38.45;100308.41;4927881;29;20490;-76
2023/09/03 08:20:50;;;;;;;8.73;4.63;;;;;;;29.13;37.92;100283.56;4946870;29;20039;-78
2023/09/03 08:23:16;;;;;;;5.70;4.43;;;;;;;29.49;37.28;100290.63;4926412;29;20135;-76
2023/09/03 08:25:42;;;;;;;6.55;4.00;;;;;;;29.73;36.63;100293.16;4943003;28;20387;-78
2023/09/03 08:28:09;;;;;;;6.68;4.47;;;;;;;30.08;36.36;100286.72;4928246;29;20146;-75
2023/09/03 08:30:35;;;;;;;7.30;4.18;;;;;;;30.53;35.98;100292.81;4914257;29;20055;-75
2023/09/03 08:33:01;;;;;;;7.40;4.85;;;;;;;29.83;34.83;100251.16;4944370;29;20043;-76
2023/09/03 08:35:28;;;;;;;7.03;5.00;;;;;;;29.58;35.82;100249.69;4926307;29;20044;-75
2023/09/03 08:37:54;;;;;;;6.05;4.70;;;;;;;30.17;35.60;100294.00;4932142;29;20103;-74
2023/09/03 08:40:20;;;;;;;6.45;4.38;;;;;;;30.73;35.47;100301.88;4913743;29;20052;-72
2023/09/03 08:42:47;;;;;;;6.05;4.03;;;;;;;31.36;35.19;100299.06;4929330;29;20517;-76
2023/09/03 08:45:16;;;;;;;6.85;4.38;;;;;;;32.10;34.25;100306.88;4928801;29;20048;-75
2023/09/03 08:47:44;;;;;;;8.43;4.25;;;;;;;32.71;33.18;100303.00;4946618;29;20079;-75
2023/09/03 08:50:15;;;;;;;7.68;3.58;;;;;;;33.34;31.78;100290.72;4899151;29;20047;-77
2023/09/03 08:52:42;;;;;;;;;;;;;;;35.37;30.62;100304.53;4929365;29;20046;-78
2023/09/03 08:55:10;;;;;;;5.22;3.72;;;;;;;37.20;28.95;100270.97;4929889;29;19918;-77
2023/09/03 08:57:36;;;;;;;6.90;3.55;;;;;;;38.65;26.63;100303.91;4913768;29;20048;-75
2023/09/03 09:00:07;;;;;;;5.65;3.55;;;;;;;38.99;25.63;100299.78;4929477;29;20043;-77
2023/09/03 09:02:35;;;;;;;7.57;3.72;;;;;;;39.47;24.80;100283.06;4944141;29;20126;-72
2023/09/03 09:05:09;;;;;;;7.80;3.75;;;;;;;39.36;23.64;100288.97;4928399;29;20048;-75
2023/09/03 09:07:36;;;;;;;5.93;3.80;;;;;;;38.50;23.73;100282.13;4927952;29;20035;-77
2023/09/03 09:10:06;;;;;;;5.85;3.65;;;;;;;39.42;23.57;100298.25;4929412;29;20167;-73
2023/09/03 09:12:41;;;;;;;7.43;3.63;;;;;;;40.78;22.27;100282.94;4944229;29;20095;-73
2023/09/03 09:15:08;;;;;;;7.85;4.03;;;;;;;42.26;21.23;100286.09;4931096;29;20299;-74
2023/09/03 09:17:39;;;;;;;6.15;4.13;;;;;;;43.10;20.07;100286.34;4915593;29;20043;-72
2023/09/03 09:20:06;;;;;;;6.75;3.88;;;;;;;44.07;18.84;100277.16;4947604;28;20044;-77
2023/09/03 09:22:43;;;;;;;6.70;4.15;;;;;;;44.48;17.81;100291.34;4947051;29;20047;-73
2023/09/03 09:25:17;;;;;;;6.07;3.72;;;;;;;44.77;17.80;100271.63;4948206;28;20087;-74
2023/09/03 09:27:43;;;;;;;4.82;3.63;;;;;;;44.86;17.66;100261.19;4916740;29;20039;-79
2023/09/03 09:30:14;;;;;;;4.68;3.97;;;;;;;45.35;16.51;100250.25;4935989;29;20051;-75
2023/09/03 09:32:42;;;;;;;5.15;3.78;;;;;;;45.41;16.04;100258.38;4918300;29;20552;-87
2023/09/03 09:35:08;;;;;;;7.38;5.72;;;;;;;44.21;16.43;100255.13;4916536;29;20114;-82
2023/09/03 09:37:41;;;;;;;6.93;4.18;;;;;;;43.79;16.44;100272.94;4945320;28;20445;-78
2023/09/03 09:40:08;;;;;;;4.78;3.70;;;;;;;44.24;16.43;100277.44;4912474;29;20043;-78
2023/09/03 09:42:50;;;;;;;9.25;5.78;;;;;;;45.11;16.63;100280.31;4912432;29;20032;-80
2023/09/03 09:45:16;;;;;;;7.53;4.50;;;;;;;46.46;15.61;100290.09;4925315;29;20518;-79
2023/09/03 09:47:42;;;;;;;4.60;3.58;;;;;;;46.81;14.35;100278.22;4942611;29;20494;-80
2023/09/03 09:50:09;;;;;;;6.90;4.13;;;;;;;46.34;14.69;100281.00;4930530;29;20043;-78
2023/09/03 09:52:36;;;;;;;10.30;4.20;;;;;;;45.17;14.73;100251.91;4925878;29;20071;-78
2023/09/03 09:55:03;;;;;;;6.10;3.78;;;;;;;44.22;15.82;100276.00;4927789;29;20040;-75
2023/09/03 09:57:29;;;;;;;4.20;3.53;;;;;;;44.45;15.29;100247.94;4929118;29;20039;-77
2023/09/03 09:59:59;;;;;;;5.65;3.50;;;;;;;44.58;15.23;100271.63;4942456;28;20514;-75
2023/09/03 10:02:25;;;;;;;4.47;3.20;;;;;;;44.87;14.80;100252.75;4927430;29;20391;-74
2023/09/03 10:04:52;;;;;;;4.10;3.63;;;;;;;45.35;15.29;100240.09;4913105;29;20048;-85
2023/09/03 10:07:19;;;;;;;7.55;3.95;;;;;;;46.30;14.54;100272.38;4947556;28;20039;-88
2023/09/03 10:09:45;;;;;;;5.72;4.15;;;;;;;47.09;13.82;100245.47;4944834;28;20143;-73
2023/09/03 10:12:13;;;;;;;6.00;3.80;;;;;;;47.06;13.66;100274.31;4912754;29;20087;-75
2023/09/03 10:14:41;;;;;;;5.93;4.38;;;;;;;46.48;13.92;100249.44;4942712;29;20529;-76
2023/09/03 10:17:09;;;;;;;7.43;3.80;;;;;;;46.76;14.02;100265.16;4910938;29;20158;-74
2023/09/03 10:19:42;;;;;;;3.83;3.17;;;;;;;45.96;13.12;100261.13;4941932;28;20526;-78
2023/09/03 10:22:13;;;;;;;5.75;3.30;;;;;;;44.43;14.84;100224.53;4928122;29;20051;-74
2023/09/03 10:24:42;;;;;;;6.00;3.25;;;;;;;44.56;14.45;100254.56;4924108;29;20513;-75
2023/09/03 10:27:13;;;;;;;5.35;2.70;;;;;;;44.43;13.90;100266.47;4925698;29;20158;-76
2023/09/03 10:29:42;;;;;;;3.67;3.10;;;;;;;43.76;14.83;100246.00;4929089;29;20134;-74
2023/09/03 10:32:10;;;;;;;4.55;3.10;;;;;;;43.09;15.21;100248.25;4910028;29;20039;-71
2023/09/03 10:34:37;;;;;;;7.22;3.38;;;;;;;43.00;14.92;100245.78;4927444;29;22170;-76
2023/09/03 10:37:07;;;;;;;4.20;2.47;;;;;;;42.92;15.41;100251.50;4943503;28;20067;-81
2023/09/03 10:39:38;;;;;;;4.60;2.50;;;;;;;42.51;14.96;100255.38;4929417;29;20229;-81
2023/09/03 10:42:28;;;;;;;2.83;2.28;;;;;;;41.54;15.33;100262.09;4930422;29;20050;-79
2023/09/03 10:44:57;;;;;;;6.72;2.70;;;;;;;39.84;16.66;100253.06;4944458;28;20119;-80
2023/09/03 10:47:24;;;;;;;5.65;3.53;;;;;;;38.46;17.29;100260.97;4945762;29;20071;-81
2023/09/03 10:49:52;;;;;;;5.30;2.35;;;;;;;37.04;18.37;100225.81;4932311;29;20051;-81
2023/09/03 10:52:31;;;;;;;6.65;3.42;;;;;;;36.46;18.91;100271.19;4949474;29;20036;-78
2023/09/03 10:55:20;;;;;;;4.78;2.47;;;;;;;35.41;19.90;100270.72;4946410;28;20044;-78
2023/09/03 10:58:10;;;;;;;6.18;2.72;;;;;;;34.70;20.40;100272.75;4913141;29;20043;-79
2023/09/03 11:00:37;;;;;;;4.30;3.72;;;;;;;34.07;21.16;100270.09;4927848;29;20821;-75
2023/09/03 11:03:17;;;;;;;4.00;3.05;;;;;;;33.69;21.77;100268.50;4929161;29;20040;-88
2023/09/03 11:06:18;;;;;;;3.85;2.38;;;;;;;33.07;22.82;100245.75;4910072;29;20058;-76
2023/09/03 11:08:48;;;;;;;3.58;2.30;;;;;;;32.51;23.19;100259.09;4917439;29;20403;-75
2023/09/03 11:11:21;;;;;;;5.35;3.20;;;;;;;32.29;23.64;100262.97;4928400;29;20072;-78
2023/09/03 11:13:54;;;;;;;3.92;2.50;;;;;;;31.81;24.45;100243.13;4900128;29;20055;-77
2023/09/03 11:16:27;;;;;;;4.40;2.78;;;;;;;31.28;24.96;100228.19;4941784;28;20043;-78
2023/09/03 11:18:53;;;;;;;5.43;2.47;;;;;;;31.16;24.84;100254.31;4942009;29;20239;-76
2023/09/03 11:21:19;;;;;;;3.22;2.45;;;;;;;31.03;25.25;100267.94;4928430;29;20047;-82
2023/09/03 11:24:20;;;;;;;6.05;2.97;;;;;;;30.53;25.77;100272.22;4930649;29;20035;-84
2023/09/03 11:27:04;;;;;;;4.78;2.60;;;;;;;30.32;26.02;100273.06;4918522;29;20653;-81
2023/09/03 11:29:30;;;;;;;6.60;2.63;;;;;;;29.99;26.58;100261.50;4930019;29;20064;-84
2023/09/03 11:31:59;;;;;;;7.55;4.97;;;;;;;29.97;26.84;100262.63;4937246;29;20095;-89